sensor_id;sensor_type;location;lat;lon;timestamp;P1;durP1;ratioP1;P2;durP2;ratioP2
24325;SDS011;12448;45.532;5.290;2023-05-29T00:02:11;7.55;;;3.90;;
24325;SDS011;12448;45.532;5.290;2023-05-29T00:04:37;6.75;;;4.45;;
24325;SDS011;12448;45.532;5.290;2023-05-29T00:07:03;6.50;;;4.38;;
24325;SDS011;12448;45.532;5.290;2023-05-29T00:09:31;10.38;;;3.97;;
24325;SDS011;12448;45.532;5.290;2023-05-29T00:11:57;8.50;;;4.45;;
24325;SDS011;12448;45.532;5.290;2023-05-29T00:14:23;6.38;;;4.10;;
24325;SDS011;12448;45.532;5.290;2023-05-29T00:16:51;4.90;;;4.18;;
24325;SDS011;12448;45.532;5.290;2023-05-29T00:19:26;8.85;;;4.28;;
24325;SDS011;12448;45.532;5.290;2023-05-29T00:22:15;7.30;;;4.40;;
24325;SDS011;12448;45.532;5.290;2023-05-29T00:24:41;10.00;;;4.47;;
24325;SDS011;12448;45.532;5.290;2023-05-29T00:27:34;6.75;;;4.05;;
24325;SDS011;12448;45.532;5.290;2023-05-29T00:30:11;7.82;;;4.20;;
24325;SDS011;12448;45.532;5.290;2023-05-29T00:32:46;7.95;;;4.65;;
24325;SDS011;12448;45.532;5.290;2023-05-29T00:35:17;11.73;;;5.07;;
24325;SDS011;12448;45.532;5.290;2023-05-29T00:38:10;9.07;;;4.32;;
24325;SDS011;12448;45.532;5.290;2023-05-29T00:44:29;10.00;;;4.30;;
24325;SDS011;12448;45.532;5.290;2023-05-29T00:47:09;8.32;;;4.38;;
24325;SDS011;12448;45.532;5.290;2023-05-29T01:07:48;7.03;;;4.03;;
24325;SDS011;12448;45.532;5.290;2023-05-29T02:32:41;9.13;;;4.82;;
24325;SDS011;12448;45.532;5.290;2023-05-29T03:27:46;8.43;;;4.82;;
24325;SDS011;12448;45.532;5.290;2023-05-29T03:31:03;10.05;;;5.35;;
24325;SDS011;12448;45.532;5.290;2023-05-29T03:37:51;8.77;;;4.85;;
24325;SDS011;12448;45.532;5.290;2023-05-29T03:44:47;8.77;;;5.22;;
24325;SDS011;12448;45.532;5.290;2023-05-29T04:01:03;8.63;;;4.75;;
24325;SDS011;12448;45.532;5.290;2023-05-29T04:04:14;12.15;;;5.10;;
24325;SDS011;12448;45.532;5.290;2023-05-29T04:10:08;9.82;;;5.45;;
24325;SDS011;12448;45.532;5.290;2023-05-29T04:58:57;12.30;;;5.10;;
24325;SDS011;12448;45.532;5.290;2023-05-29T05:05:18;6.93;;;4.47;;
24325;SDS011;12448;45.532;5.290;2023-05-29T05:12:44;7.82;;;4.72;;
24325;SDS011;12448;45.532;5.290;2023-05-29T05:39:48;9.18;;;5.38;;
24325;SDS011;12448;45.532;5.290;2023-05-29T05:42:57;8.63;;;5.65;;
24325;SDS011;12448;45.532;5.290;2023-05-29T05:46:08;7.68;;;5.28;;
24325;SDS011;12448;45.532;5.290;2023-05-29T05:55:55;9.32;;;5.45;;
24325;SDS011;12448;45.532;5.290;2023-05-29T05:58:52;8.82;;;5.75;;
24325;SDS011;12448;45.532;5.290;2023-05-29T06:04:59;13.52;;;5.82;;
24325;SDS011;12448;45.532;5.290;2023-05-29T06:11:37;12.27;;;6.43;;
24325;SDS011;12448;45.532;5.290;2023-05-29T06:17:54;12.90;;;5.50;;
24325;SDS011;12448;45.532;5.290;2023-05-29T06:21:04;8.57;;;5.53;;
24325;SDS011;12448;45.532;5.290;2023-05-29T06:24:19;8.38;;;5.82;;
24325;SDS011;12448;45.532;5.290;2023-05-29T06:38:30;8.45;;;5.47;;
24325;SDS011;12448;45.532;5.290;2023-05-29T06:45:30;12.20;;;5.70;;
24325;SDS011;12448;45.532;5.290;2023-05-29T06:48:35;11.65;;;5.63;;
24325;SDS011;12448;45.532;5.290;2023-05-29T06:51:43;9.55;;;5.43;;
24325;SDS011;12448;45.532;5.290;2023-05-29T06:54:35;7.80;;;5.00;;
24325;SDS011;12448;45.532;5.290;2023-05-29T06:57:30;10.05;;;5.35;;
24325;SDS011;12448;45.532;5.290;2023-05-29T07:00:07;8.68;;;5.20;;
24325;SDS011;12448;45.532;5.290;2023-05-29T07:02:57;8.60;;;5.00;;
24325;SDS011;12448;45.532;5.290;2023-05-29T07:05:26;8.68;;;5.47;;
24325;SDS011;12448;45.532;5.290;2023-05-29T07:07:52;9.07;;;5.25;;
24325;SDS011;12448;45.532;5.290;2023-05-29T07:10:18;8.60;;;5.63;;
24325;SDS011;12448;45.532;5.290;2023-05-29T07:12:43;8.40;;;5.45;;
24325;SDS011;12448;45.532;5.290;2023-05-29T07:15:09;8.80;;;5.45;;
24325;SDS011;12448;45.532;5.290;2023-05-29T07:17:35;9.95;;;5.90;;
24325;SDS011;12448;45.532;5.290;2023-05-29T07:20:00;10.75;;;5.22;;
24325;SDS011;12448;45.532;5.290;2023-05-29T07:22:26;10.88;;;5.55;;
24325;SDS011;12448;45.532;5.290;2023-05-29T07:24:52;7.35;;;4.93;;
24325;SDS011;12448;45.532;5.290;2023-05-29T07:27:17;12.45;;;5.85;;
24325;SDS011;12448;45.532;5.290;2023-05-29T07:29:43;9.15;;;5.60;;
24325;SDS011;12448;45.532;5.290;2023-05-29T07:32:08;10.75;;;5.55;;
24325;SDS011;12448;45.532;5.290;2023-05-29T07:34:35;11.98;;;5.40;;
24325;SDS011;12448;45.532;5.290;2023-05-29T07:37:04;9.82;;;5.80;;
24325;SDS011;12448;45.532;5.290;2023-05-29T07:39:31;10.52;;;5.82;;
24325;SDS011;12448;45.532;5.290;2023-05-29T07:41:58;8.65;;;5.22;;
24325;SDS011;12448;45.532;5.290;2023-05-29T07:44:26;9.57;;;5.68;;
24325;SDS011;12448;45.532;5.290;2023-05-29T07:46:51;8.85;;;5.82;;
24325;SDS011;12448;45.532;5.290;2023-05-29T07:49:17;9.27;;;5.95;;
24325;SDS011;12448;45.532;5.290;2023-05-29T07:51:44;12.18;;;5.85;;
24325;SDS011;12448;45.532;5.290;2023-05-29T07:54:10;12.10;;;5.97;;
24325;SDS011;12448;45.532;5.290;2023-05-29T07:56:36;11.27;;;5.68;;
24325;SDS011;12448;45.532;5.290;2023-05-29T07:59:03;10.82;;;6.07;;
24325;SDS011;12448;45.532;5.290;2023-05-29T08:01:29;9.55;;;5.57;;
24325;SDS011;12448;45.532;5.290;2023-05-29T08:03:55;8.30;;;5.32;;
24325;SDS011;12448;45.532;5.290;2023-05-29T08:09:17;13.43;;;6.00;;
24325;SDS011;12448;45.532;5.290;2023-05-29T08:11:49;11.20;;;5.77;;
24325;SDS011;12448;45.532;5.290;2023-05-29T08:14:26;10.95;;;6.03;;
24325;SDS011;12448;45.532;5.290;2023-05-29T08:16:55;8.38;;;5.90;;
24325;SDS011;12448;45.532;5.290;2023-05-29T08:19:42;11.27;;;5.82;;
24325;SDS011;12448;45.532;5.290;2023-05-29T08:22:33;11.20;;;5.82;;
24325;SDS011;12448;45.532;5.290;2023-05-29T08:28:40;10.05;;;6.07;;
24325;SDS011;12448;45.532;5.290;2023-05-29T08:35:19;10.70;;;6.20;;
24325;SDS011;12448;45.532;5.290;2023-05-29T08:38:43;10.73;;;6.45;;
24325;SDS011;12448;45.532;5.290;2023-05-29T08:44:58;13.32;;;6.03;;
24325;SDS011;12448;45.532;5.290;2023-05-29T08:48:15;11.40;;;6.95;;
24325;SDS011;12448;45.532;5.290;2023-05-29T08:51:31;11.13;;;6.90;;
24325;SDS011;12448;45.532;5.290;2023-05-29T08:54:01;11.43;;;6.45;;
24325;SDS011;12448;45.532;5.290;2023-05-29T08:56:27;14.55;;;6.07;;
24325;SDS011;12448;45.532;5.290;2023-05-29T08:58:53;13.02;;;5.95;;
24325;SDS011;12448;45.532;5.290;2023-05-29T09:01:20;9.10;;;6.35;;
24325;SDS011;12448;45.532;5.290;2023-05-29T09:03:47;12.18;;;6.22;;
24325;SDS011;12448;45.532;5.290;2023-05-29T09:06:13;14.90;;;7.25;;
24325;SDS011;12448;45.532;5.290;2023-05-29T09:08:39;14.27;;;6.35;;
24325;SDS011;12448;45.532;5.290;2023-05-29T09:11:05;10.20;;;6.63;;
24325;SDS011;12448;45.532;5.290;2023-05-29T09:13:30;13.15;;;6.43;;
24325;SDS011;12448;45.532;5.290;2023-05-29T09:15:59;12.50;;;6.47;;
24325;SDS011;12448;45.532;5.290;2023-05-29T09:18:37;10.77;;;6.35;;
24325;SDS011;12448;45.532;5.290;2023-05-29T09:21:30;11.30;;;6.40;;
24325;SDS011;12448;45.532;5.290;2023-05-29T09:24:05;10.95;;;6.43;;
24325;SDS011;12448;45.532;5.290;2023-05-29T09:26:31;12.15;;;6.35;;
24325;SDS011;12448;45.532;5.290;2023-05-29T09:28:57;9.88;;;6.45;;
24325;SDS011;12448;45.532;5.290;2023-05-29T09:31:23;11.63;;;6.30;;
24325;SDS011;12448;45.532;5.290;2023-05-29T09:33:49;9.30;;;5.95;;
24325;SDS011;12448;45.532;5.290;2023-05-29T09:36:21;12.75;;;6.50;;
24325;SDS011;12448;45.532;5.290;2023-05-29T09:38:48;10.68;;;6.32;;
24325;SDS011;12448;45.532;5.290;2023-05-29T09:41:21;11.55;;;6.80;;
24325;SDS011;12448;45.532;5.290;2023-05-29T09:44:09;9.80;;;6.70;;
24325;SDS011;12448;45.532;5.290;2023-05-29T09:47:05;11.10;;;6.80;;
24325;SDS011;12448;45.532;5.290;2023-05-29T09:49:31;12.65;;;6.38;;
24325;SDS011;12448;45.532;5.290;2023-05-29T09:51:57;10.30;;;6.25;;
24325;SDS011;12448;45.532;5.290;2023-05-29T09:54:24;10.90;;;7.30;;
24325;SDS011;12448;45.532;5.290;2023-05-29T09:56:54;11.05;;;7.35;;
24325;SDS011;12448;45.532;5.290;2023-05-29T09:59:23;13.05;;;6.28;;
24325;SDS011;12448;45.532;5.290;2023-05-29T10:01:53;10.70;;;6.72;;
24325;SDS011;12448;45.532;5.290;2023-05-29T10:04:25;10.75;;;6.55;;
24325;SDS011;12448;45.532;5.290;2023-05-29T10:06:50;11.23;;;5.68;;
24325;SDS011;12448;45.532;5.290;2023-05-29T10:09:18;10.18;;;6.35;;
24325;SDS011;12448;45.532;5.290;2023-05-29T10:11:46;14.20;;;6.20;;
24325;SDS011;12448;45.532;5.290;2023-05-29T10:14:16;11.30;;;6.15;;
24325;SDS011;12448;45.532;5.290;2023-05-29T10:16:48;11.55;;;6.40;;
24325;SDS011;12448;45.532;5.290;2023-05-29T10:19:19;8.18;;;6.22;;
24325;SDS011;12448;45.532;5.290;2023-05-29T10:21:51;14.75;;;6.95;;
24325;SDS011;12448;45.532;5.290;2023-05-29T10:24:18;10.35;;;5.75;;
24325;SDS011;12448;45.532;5.290;2023-05-29T10:26:46;9.15;;;6.03;;
24325;SDS011;12448;45.532;5.290;2023-05-29T10:29:31;9.40;;;5.88;;
24325;SDS011;12448;45.532;5.290;2023-05-29T10:40:07;9.68;;;6.53;;
24325;SDS011;12448;45.532;5.290;2023-05-29T10:42:47;9.60;;;6.18;;
24325;SDS011;12448;45.532;5.290;2023-05-29T10:47:55;12.52;;;6.18;;
24325;SDS011;12448;45.532;5.290;2023-05-29T10:50:41;10.68;;;6.40;;
24325;SDS011;12448;45.532;5.290;2023-05-29T10:53:09;11.35;;;6.38;;
24325;SDS011;12448;45.532;5.290;2023-05-29T10:55:36;11.52;;;6.10;;
24325;SDS011;12448;45.532;5.290;2023-05-29T10:58:05;8.25;;;6.07;;
24325;SDS011;12448;45.532;5.290;2023-05-29T11:00:32;11.55;;;6.60;;
24325;SDS011;12448;45.532;5.290;2023-05-29T11:03:01;10.55;;;6.07;;
24325;SDS011;12448;45.532;5.290;2023-05-29T11:05:28;11.27;;;6.40;;
24325;SDS011;12448;45.532;5.290;2023-05-29T11:07:58;14.02;;;6.55;;
24325;SDS011;12448;45.532;5.290;2023-05-29T11:10:44;11.02;;;5.95;;
24325;SDS011;12448;45.532;5.290;2023-05-29T11:13:24;12.82;;;6.18;;
24325;SDS011;12448;45.532;5.290;2023-05-29T11:16:11;11.20;;;6.20;;
24325;SDS011;12448;45.532;5.290;2023-05-29T11:18:42;10.68;;;6.45;;
24325;SDS011;12448;45.532;5.290;2023-05-29T11:21:30;11.40;;;6.23;;
24325;SDS011;12448;45.532;5.290;2023-05-29T11:24:00;10.73;;;6.28;;
24325;SDS011;12448;45.532;5.290;2023-05-29T11:26:28;13.10;;;6.28;;
24325;SDS011;12448;45.532;5.290;2023-05-29T11:29:02;8.75;;;5.57;;
24325;SDS011;12448;45.532;5.290;2023-05-29T11:31:35;11.65;;;5.60;;
24325;SDS011;12448;45.532;5.290;2023-05-29T11:34:02;10.93;;;5.82;;
24325;SDS011;12448;45.532;5.290;2023-05-29T11:36:33;13.75;;;6.40;;
24325;SDS011;12448;45.532;5.290;2023-05-29T11:39:00;11.55;;;5.93;;
24325;SDS011;12448;45.532;5.290;2023-05-29T11:41:26;10.98;;;6.43;;
24325;SDS011;12448;45.532;5.290;2023-05-29T11:44:02;10.07;;;5.90;;
24325;SDS011;12448;45.532;5.290;2023-05-29T11:46:30;10.35;;;5.93;;
24325;SDS011;12448;45.532;5.290;2023-05-29T11:48:57;10.18;;;6.38;;
24325;SDS011;12448;45.532;5.290;2023-05-29T11:51:24;10.57;;;6.20;;
24325;SDS011;12448;45.532;5.290;2023-05-29T11:53:50;9.77;;;6.18;;
24325;SDS011;12448;45.532;5.290;2023-05-29T11:56:22;9.75;;;5.63;;
24325;SDS011;12448;45.532;5.290;2023-05-29T11:58:52;10.93;;;6.15;;
24325;SDS011;12448;45.532;5.290;2023-05-29T12:01:23;10.02;;;6.22;;
24325;SDS011;12448;45.532;5.290;2023-05-29T12:03:50;10.32;;;5.43;;
24325;SDS011;12448;45.532;5.290;2023-05-29T12:06:15;13.18;;;6.22;;
24325;SDS011;12448;45.532;5.290;2023-05-29T12:08:41;9.52;;;6.18;;
24325;SDS011;12448;45.532;5.290;2023-05-29T12:11:07;14.98;;;6.10;;
24325;SDS011;12448;45.532;5.290;2023-05-29T12:13:33;9.25;;;6.60;;
24325;SDS011;12448;45.532;5.290;2023-05-29T12:16:02;10.00;;;6.22;;
24325;SDS011;12448;45.532;5.290;2023-05-29T12:18:30;10.75;;;6.35;;
24325;SDS011;12448;45.532;5.290;2023-05-29T12:20:56;10.80;;;6.80;;
24325;SDS011;12448;45.532;5.290;2023-05-29T12:23:23;8.68;;;6.20;;
24325;SDS011;12448;45.532;5.290;2023-05-29T12:25:50;8.70;;;6.07;;
24325;SDS011;12448;45.532;5.290;2023-05-29T12:28:17;11.82;;;5.93;;
24325;SDS011;12448;45.532;5.290;2023-05-29T12:30:44;10.20;;;5.82;;
24325;SDS011;12448;45.532;5.290;2023-05-29T12:33:30;9.23;;;6.22;;
24325;SDS011;12448;45.532;5.290;2023-05-29T12:36:04;11.82;;;6.28;;
24325;SDS011;12448;45.532;5.290;2023-05-29T12:38:31;16.20;;;6.32;;
24325;SDS011;12448;45.532;5.290;2023-05-29T12:40:57;18.63;;;6.50;;
24325;SDS011;12448;45.532;5.290;2023-05-29T12:43:23;11.57;;;6.22;;
24325;SDS011;12448;45.532;5.290;2023-05-29T12:45:54;10.90;;;6.07;;
24325;SDS011;12448;45.532;5.290;2023-05-29T12:48:21;9.68;;;6.18;;
24325;SDS011;12448;45.532;5.290;2023-05-29T12:50:51;8.27;;;5.90;;
24325;SDS011;12448;45.532;5.290;2023-05-29T12:53:17;13.77;;;6.50;;
24325;SDS011;12448;45.532;5.290;2023-05-29T12:55:43;10.13;;;5.93;;
24325;SDS011;12448;45.532;5.290;2023-05-29T12:58:12;10.63;;;6.32;;
24325;SDS011;12448;45.532;5.290;2023-05-29T13:00:44;9.18;;;6.43;;
24325;SDS011;12448;45.532;5.290;2023-05-29T13:03:12;12.18;;;6.50;;
24325;SDS011;12448;45.532;5.290;2023-05-29T13:05:38;10.13;;;6.15;;
24325;SDS011;12448;45.532;5.290;2023-05-29T13:08:04;9.52;;;5.90;;
24325;SDS011;12448;45.532;5.290;2023-05-29T13:10:32;10.23;;;6.03;;
24325;SDS011;12448;45.532;5.290;2023-05-29T13:12:59;9.00;;;5.70;;
24325;SDS011;12448;45.532;5.290;2023-05-29T13:15:25;12.85;;;5.40;;
24325;SDS011;12448;45.532;5.290;2023-05-29T13:17:51;11.43;;;6.70;;
24325;SDS011;12448;45.532;5.290;2023-05-29T13:20:18;10.95;;;5.60;;
24325;SDS011;12448;45.532;5.290;2023-05-29T13:22:45;10.57;;;5.78;;
24325;SDS011;12448;45.532;5.290;2023-05-29T13:25:12;9.10;;;5.15;;
24325;SDS011;12448;45.532;5.290;2023-05-29T13:27:40;10.23;;;5.70;;
24325;SDS011;12448;45.532;5.290;2023-05-29T13:30:07;10.32;;;5.90;;
24325;SDS011;12448;45.532;5.290;2023-05-29T13:32:33;11.00;;;6.20;;
24325;SDS011;12448;45.532;5.290;2023-05-29T13:34:59;9.38;;;6.22;;
24325;SDS011;12448;45.532;5.290;2023-05-29T13:37:25;8.30;;;5.65;;
24325;SDS011;12448;45.532;5.290;2023-05-29T13:39:52;8.75;;;5.55;;
24325;SDS011;12448;45.532;5.290;2023-05-29T13:42:18;12.15;;;5.85;;
24325;SDS011;12448;45.532;5.290;2023-05-29T13:44:44;12.85;;;5.95;;
24325;SDS011;12448;45.532;5.290;2023-05-29T13:47:11;9.15;;;5.70;;
24325;SDS011;12448;45.532;5.290;2023-05-29T13:49:36;10.18;;;5.57;;
24325;SDS011;12448;45.532;5.290;2023-05-29T13:52:02;11.80;;;6.22;;
24325;SDS011;12448;45.532;5.290;2023-05-29T13:54:28;9.05;;;5.82;;
24325;SDS011;12448;45.532;5.290;2023-05-29T13:57:01;9.70;;;5.97;;
24325;SDS011;12448;45.532;5.290;2023-05-29T13:59:28;12.40;;;5.60;;
24325;SDS011;12448;45.532;5.290;2023-05-29T14:01:54;10.18;;;5.47;;
24325;SDS011;12448;45.532;5.290;2023-05-29T14:04:20;8.00;;;5.40;;
24325;SDS011;12448;45.532;5.290;2023-05-29T14:06:45;8.07;;;5.50;;
24325;SDS011;12448;45.532;5.290;2023-05-29T14:09:11;9.30;;;5.70;;
24325;SDS011;12448;45.532;5.290;2023-05-29T14:11:37;7.63;;;5.35;;
24325;SDS011;12448;45.532;5.290;2023-05-29T14:14:03;9.77;;;5.68;;
24325;SDS011;12448;45.532;5.290;2023-05-29T14:16:29;9.15;;;6.45;;
24325;SDS011;12448;45.532;5.290;2023-05-29T14:18:55;10.65;;;6.00;;
24325;SDS011;12448;45.532;5.290;2023-05-29T14:21:21;8.73;;;5.30;;
24325;SDS011;12448;45.532;5.290;2023-05-29T14:23:46;9.82;;;5.78;;
24325;SDS011;12448;45.532;5.290;2023-05-29T14:26:12;9.15;;;5.85;;
24325;SDS011;12448;45.532;5.290;2023-05-29T14:28:38;8.07;;;5.60;;
24325;SDS011;12448;45.532;5.290;2023-05-29T14:31:04;7.82;;;5.45;;
24325;SDS011;12448;45.532;5.290;2023-05-29T14:33:30;12.30;;;6.00;;
24325;SDS011;12448;45.532;5.290;2023-05-29T14:35:56;12.38;;;6.15;;
24325;SDS011;12448;45.532;5.290;2023-05-29T14:38:22;9.35;;;5.70;;
24325;SDS011;12448;45.532;5.290;2023-05-29T14:40:48;15.27;;;5.80;;
24325;SDS011;12448;45.532;5.290;2023-05-29T14:43:13;13.50;;;5.63;;
24325;SDS011;12448;45.532;5.290;2023-05-29T14:45:39;11.75;;;5.53;;
24325;SDS011;12448;45.532;5.290;2023-05-29T14:48:05;10.85;;;5.82;;
24325;SDS011;12448;45.532;5.290;2023-05-29T14:50:30;8.13;;;5.90;;
24325;SDS011;12448;45.532;5.290;2023-05-29T14:52:56;9.30;;;5.65;;
24325;SDS011;12448;45.532;5.290;2023-05-29T14:55:21;9.07;;;5.60;;
24325;SDS011;12448;45.532;5.290;2023-05-29T14:57:47;10.05;;;5.53;;
24325;SDS011;12448;45.532;5.290;2023-05-29T15:00:13;9.32;;;5.50;;
24325;SDS011;12448;45.532;5.290;2023-05-29T15:02:39;10.45;;;5.63;;
24325;SDS011;12448;45.532;5.290;2023-05-29T15:05:05;8.50;;;5.43;;
24325;SDS011;12448;45.532;5.290;2023-05-29T15:07:31;7.55;;;5.40;;
24325;SDS011;12448;45.532;5.290;2023-05-29T15:10:00;13.90;;;5.90;;
24325;SDS011;12448;45.532;5.290;2023-05-29T15:12:26;9.70;;;6.20;;
24325;SDS011;12448;45.532;5.290;2023-05-29T15:14:52;8.70;;;5.80;;
24325;SDS011;12448;45.532;5.290;2023-05-29T15:17:18;11.82;;;6.07;;
24325;SDS011;12448;45.532;5.290;2023-05-29T15:19:44;11.88;;;6.13;;
24325;SDS011;12448;45.532;5.290;2023-05-29T15:22:09;10.02;;;5.50;;
24325;SDS011;12448;45.532;5.290;2023-05-29T15:24:35;10.80;;;6.22;;
24325;SDS011;12448;45.532;5.290;2023-05-29T15:27:01;10.57;;;5.68;;
24325;SDS011;12448;45.532;5.290;2023-05-29T15:29:32;14.18;;;6.30;;
24325;SDS011;12448;45.532;5.290;2023-05-29T15:32:02;8.80;;;5.97;;
24325;SDS011;12448;45.532;5.290;2023-05-29T15:34:28;10.45;;;5.80;;
24325;SDS011;12448;45.532;5.290;2023-05-29T15:36:54;9.88;;;5.95;;
24325;SDS011;12448;45.532;5.290;2023-05-29T15:39:20;12.15;;;6.30;;
24325;SDS011;12448;45.532;5.290;2023-05-29T15:41:46;11.05;;;5.72;;
24325;SDS011;12448;45.532;5.290;2023-05-29T15:44:12;12.13;;;6.22;;
24325;SDS011;12448;45.532;5.290;2023-05-29T15:46:38;10.07;;;6.18;;
24325;SDS011;12448;45.532;5.290;2023-05-29T15:49:03;10.55;;;5.93;;
24325;SDS011;12448;45.532;5.290;2023-05-29T15:51:29;11.27;;;6.00;;
24325;SDS011;12448;45.532;5.290;2023-05-29T15:53:54;9.88;;;5.80;;
24325;SDS011;12448;45.532;5.290;2023-05-29T15:56:20;10.43;;;6.35;;
24325;SDS011;12448;45.532;5.290;2023-05-29T15:58:52;9.98;;;6.20;;
24325;SDS011;12448;45.532;5.290;2023-05-29T16:01:18;11.90;;;6.00;;
24325;SDS011;12448;45.532;5.290;2023-05-29T16:03:43;11.02;;;5.90;;
24325;SDS011;12448;45.532;5.290;2023-05-29T16:06:09;12.95;;;5.68;;
24325;SDS011;12448;45.532;5.290;2023-05-29T16:08:35;9.70;;;6.05;;
24325;SDS011;12448;45.532;5.290;2023-05-29T16:11:00;11.82;;;6.15;;
24325;SDS011;12448;45.532;5.290;2023-05-29T16:13:28;13.45;;;8.27;;
24325;SDS011;12448;45.532;5.290;2023-05-29T16:15:57;16.60;;;6.10;;
24325;SDS011;12448;45.532;5.290;2023-05-29T16:18:23;10.00;;;6.20;;
24325;SDS011;12448;45.532;5.290;2023-05-29T16:20:49;10.95;;;5.35;;
24325;SDS011;12448;45.532;5.290;2023-05-29T16:23:15;9.23;;;5.45;;
24325;SDS011;12448;45.532;5.290;2023-05-29T16:25:43;11.48;;;6.05;;
24325;SDS011;12448;45.532;5.290;2023-05-29T16:28:09;8.88;;;5.63;;
24325;SDS011;12448;45.532;5.290;2023-05-29T16:30:34;11.15;;;6.00;;
24325;SDS011;12448;45.532;5.290;2023-05-29T16:33:00;11.15;;;5.13;;
24325;SDS011;12448;45.532;5.290;2023-05-29T16:35:26;10.20;;;5.63;;
24325;SDS011;12448;45.532;5.290;2023-05-29T16:37:51;14.73;;;5.53;;
24325;SDS011;12448;45.532;5.290;2023-05-29T16:40:18;14.80;;;5.40;;
24325;SDS011;12448;45.532;5.290;2023-05-29T16:42:45;11.77;;;5.15;;
24325;SDS011;12448;45.532;5.290;2023-05-29T16:45:10;10.25;;;5.00;;
24325;SDS011;12448;45.532;5.290;2023-05-29T16:47:36;10.13;;;4.82;;
24325;SDS011;12448;45.532;5.290;2023-05-29T16:50:02;9.35;;;5.10;;
24325;SDS011;12448;45.532;5.290;2023-05-29T16:52:28;8.40;;;5.38;;
24325;SDS011;12448;45.532;5.290;2023-05-29T16:54:54;14.02;;;5.38;;
24325;SDS011;12448;45.532;5.290;2023-05-29T16:57:22;9.48;;;5.20;;
24325;SDS011;12448;45.532;5.290;2023-05-29T16:59:48;6.93;;;4.90;;
24325;SDS011;12448;45.532;5.290;2023-05-29T17:02:14;9.55;;;5.13;;
24325;SDS011;12448;45.532;5.290;2023-05-29T17:04:40;11.82;;;5.82;;
24325;SDS011;12448;45.532;5.290;2023-05-29T17:07:06;9.40;;;5.25;;
24325;SDS011;12448;45.532;5.290;2023-05-29T17:09:31;9.07;;;5.05;;
24325;SDS011;12448;45.532;5.290;2023-05-29T17:11:57;11.80;;;5.25;;
24325;SDS011;12448;45.532;5.290;2023-05-29T17:14:23;9.10;;;5.45;;
24325;SDS011;12448;45.532;5.290;2023-05-29T17:16:49;10.85;;;6.18;;
24325;SDS011;12448;45.532;5.290;2023-05-29T17:19:15;13.63;;;6.30;;
24325;SDS011;12448;45.532;5.290;2023-05-29T17:21:40;10.20;;;6.78;;
24325;SDS011;12448;45.532;5.290;2023-05-29T17:24:06;12.43;;;5.63;;
24325;SDS011;12448;45.532;5.290;2023-05-29T17:26:32;15.02;;;9.15;;
24325;SDS011;12448;45.532;5.290;2023-05-29T17:28:57;25.92;;;21.75;;
24325;SDS011;12448;45.532;5.290;2023-05-29T17:31:23;17.80;;;10.95;;
24325;SDS011;12448;45.532;5.290;2023-05-29T17:33:49;11.77;;;7.55;;
24325;SDS011;12448;45.532;5.290;2023-05-29T17:36:14;9.95;;;5.88;;
24325;SDS011;12448;45.532;5.290;2023-05-29T17:38:40;10.65;;;5.63;;
24325;SDS011;12448;45.532;5.290;2023-05-29T17:41:06;8.02;;;4.90;;
24325;SDS011;12448;45.532;5.290;2023-05-29T17:43:31;10.25;;;5.10;;
24325;SDS011;12448;45.532;5.290;2023-05-29T17:45:58;8.18;;;5.05;;
24325;SDS011;12448;45.532;5.290;2023-05-29T17:48:24;10.35;;;5.53;;
24325;SDS011;12448;45.532;5.290;2023-05-29T17:50:50;12.82;;;5.78;;
24325;SDS011;12448;45.532;5.290;2023-05-29T17:53:15;9.52;;;5.30;;
24325;SDS011;12448;45.532;5.290;2023-05-29T17:55:41;8.02;;;5.00;;
24325;SDS011;12448;45.532;5.290;2023-05-29T17:58:07;10.35;;;5.30;;
24325;SDS011;12448;45.532;5.290;2023-05-29T18:00:33;9.43;;;4.90;;
24325;SDS011;12448;45.532;5.290;2023-05-29T18:03:00;14.32;;;5.78;;
24325;SDS011;12448;45.532;5.290;2023-05-29T18:05:26;11.23;;;5.60;;
24325;SDS011;12448;45.532;5.290;2023-05-29T18:07:52;11.73;;;5.90;;
24325;SDS011;12448;45.532;5.290;2023-05-29T18:10:18;11.27;;;5.30;;
24325;SDS011;12448;45.532;5.290;2023-05-29T18:12:51;8.98;;;5.18;;
24325;SDS011;12448;45.532;5.290;2023-05-29T18:15:18;9.05;;;5.03;;
24325;SDS011;12448;45.532;5.290;2023-05-29T18:17:44;11.13;;;5.15;;
24325;SDS011;12448;45.532;5.290;2023-05-29T18:20:10;7.75;;;4.82;;
24325;SDS011;12448;45.532;5.290;2023-05-29T18:22:38;7.50;;;4.55;;
24325;SDS011;12448;45.532;5.290;2023-05-29T18:25:03;7.47;;;5.10;;
24325;SDS011;12448;45.532;5.290;2023-05-29T18:27:30;11.07;;;4.63;;
24325;SDS011;12448;45.532;5.290;2023-05-29T18:29:56;8.48;;;5.00;;
24325;SDS011;12448;45.532;5.290;2023-05-29T18:32:23;8.80;;;4.55;;
24325;SDS011;12448;45.532;5.290;2023-05-29T18:34:48;9.25;;;4.88;;
24325;SDS011;12448;45.532;5.290;2023-05-29T18:37:14;9.52;;;4.78;;
24325;SDS011;12448;45.532;5.290;2023-05-29T18:39:40;9.57;;;5.30;;
24325;SDS011;12448;45.532;5.290;2023-05-29T18:42:06;7.32;;;4.55;;
24325;SDS011;12448;45.532;5.290;2023-05-29T18:44:32;9.48;;;4.60;;
24325;SDS011;12448;45.532;5.290;2023-05-29T18:46:58;6.90;;;4.60;;
24325;SDS011;12448;45.532;5.290;2023-05-29T18:49:24;6.32;;;4.35;;
24325;SDS011;12448;45.532;5.290;2023-05-29T18:51:50;9.13;;;4.22;;
24325;SDS011;12448;45.532;5.290;2023-05-29T18:54:15;7.97;;;4.20;;
24325;SDS011;12448;45.532;5.290;2023-05-29T18:56:42;5.53;;;3.80;;
24325;SDS011;12448;45.532;5.290;2023-05-29T18:59:09;5.50;;;3.60;;
24325;SDS011;12448;45.532;5.290;2023-05-29T19:01:34;8.18;;;4.38;;
24325;SDS011;12448;45.532;5.290;2023-05-29T19:04:00;7.90;;;4.50;;
24325;SDS011;12448;45.532;5.290;2023-05-29T19:06:27;8.15;;;4.15;;
24325;SDS011;12448;45.532;5.290;2023-05-29T19:08:53;6.13;;;4.28;;
24325;SDS011;12448;45.532;5.290;2023-05-29T19:11:19;6.07;;;4.28;;
24325;SDS011;12448;45.532;5.290;2023-05-29T19:13:45;8.27;;;4.32;;
24325;SDS011;12448;45.532;5.290;2023-05-29T19:16:12;10.68;;;3.92;;
24325;SDS011;12448;45.532;5.290;2023-05-29T19:18:39;9.65;;;3.80;;
24325;SDS011;12448;45.532;5.290;2023-05-29T19:21:05;8.05;;;4.15;;
24325;SDS011;12448;45.532;5.290;2023-05-29T19:23:32;7.90;;;3.88;;
24325;SDS011;12448;45.532;5.290;2023-05-29T19:26:10;7.90;;;4.25;;
24325;SDS011;12448;45.532;5.290;2023-05-29T19:28:35;6.40;;;4.18;;
24325;SDS011;12448;45.532;5.290;2023-05-29T19:31:01;6.30;;;4.13;;
24325;SDS011;12448;45.532;5.290;2023-05-29T19:33:27;8.40;;;4.53;;
24325;SDS011;12448;45.532;5.290;2023-05-29T19:35:52;9.30;;;4.55;;
24325;SDS011;12448;45.532;5.290;2023-05-29T19:38:18;9.20;;;4.47;;
24325;SDS011;12448;45.532;5.290;2023-05-29T19:40:43;5.75;;;4.20;;
24325;SDS011;12448;45.532;5.290;2023-05-29T19:43:09;8.77;;;4.57;;
24325;SDS011;12448;45.532;5.290;2023-05-29T19:45:36;8.65;;;4.18;;
24325;SDS011;12448;45.532;5.290;2023-05-29T19:48:02;10.95;;;5.15;;
24325;SDS011;12448;45.532;5.290;2023-05-29T19:50:27;10.65;;;4.68;;
24325;SDS011;12448;45.532;5.290;2023-05-29T19:52:53;6.55;;;4.25;;
24325;SDS011;12448;45.532;5.290;2023-05-29T19:55:19;7.38;;;4.38;;
24325;SDS011;12448;45.532;5.290;2023-05-29T19:57:46;9.27;;;4.97;;
24325;SDS011;12448;45.532;5.290;2023-05-29T20:00:13;7.15;;;4.50;;
24325;SDS011;12448;45.532;5.290;2023-05-29T20:02:39;8.25;;;4.70;;
24325;SDS011;12448;45.532;5.290;2023-05-29T20:05:06;6.63;;;4.63;;
24325;SDS011;12448;45.532;5.290;2023-05-29T20:07:32;9.73;;;4.68;;
24325;SDS011;12448;45.532;5.290;2023-05-29T20:09:58;12.38;;;4.32;;
24325;SDS011;12448;45.532;5.290;2023-05-29T20:12:24;7.47;;;4.63;;
24325;SDS011;12448;45.532;5.290;2023-05-29T20:14:50;7.30;;;4.53;;
24325;SDS011;12448;45.532;5.290;2023-05-29T20:17:16;13.85;;;5.00;;
24325;SDS011;12448;45.532;5.290;2023-05-29T20:19:43;7.28;;;5.05;;